sensor_id;sensor_type;location;lat;lon;timestamp;pressure;altitude;pressure_sealevel;temperature;humidity
2036;BME280;23642;42.658;23.350;2023-02-08T00:00:28;54093.03;;;-146.31;72.70
2036;BME280;23642;42.658;23.350;2023-02-08T01:05:00;54183.88;;;-146.31;72.40
2036;BME280;23642;42.658;23.350;2023-02-08T01:14:45;54126.06;;;-146.31;72.36
2036;BME280;23642;42.658;23.350;2023-02-08T01:21:27;54136.38;;;-146.31;72.28
2036;BME280;23642;42.658;23.350;2023-02-08T01:24:14;54126.06;;;-146.31;71.80
2036;BME280;23642;42.658;23.350;2023-02-08T01:26:52;54095.09;;;-146.31;72.12
2036;BME280;23642;42.658;23.350;2023-02-08T01:29:19;54130.19;;;-146.31;72.47
2036;BME280;23642;42.658;23.350;2023-02-08T02:08:46;54072.38;;;-146.31;73.40
2036;BME280;23642;42.658;23.350;2023-02-08T02:11:36;54068.25;;;-146.31;73.76
2036;BME280;23642;42.658;23.350;2023-02-08T02:17:37;54113.66;;;-146.31;73.24
2036;BME280;23642;42.658;23.350;2023-02-08T02:21:05;54070.31;;;-146.31;73.18
2036;BME280;23642;42.658;23.350;2023-02-08T02:40:09;54043.47;;;-146.31;74.50
2036;BME280;23642;42.658;23.350;2023-02-08T02:46:45;54002.19;;;-146.31;74.92
2036;BME280;23642;42.658;23.350;2023-02-08T02:49:30;53944.38;;;-146.31;75.77
2036;BME280;23642;42.658;23.350;2023-02-08T02:52:31;53927.84;;;-146.31;76.72
2036;BME280;23642;42.658;23.350;2023-02-08T02:55:31;53954.69;;;-146.31;76.15
2036;BME280;23642;42.658;23.350;2023-02-08T03:08:30;53874.19;;;-146.31;79.02
2036;BME280;23642;42.658;23.350;2023-02-08T03:12:18;53843.22;;;-146.31;80.53
2036;BME280;23642;42.658;23.350;2023-02-08T03:18:40;53773.03;;;-146.31;82.50
2036;BME280;23642;42.658;23.350;2023-02-08T03:21:11;53731.72;;;-146.31;83.00
2036;BME280;23642;42.658;23.350;2023-02-08T03:24:06;53754.44;;;-146.31;83.47
2036;BME280;23642;42.658;23.350;2023-02-08T03:26:57;53684.25;;;-146.31;83.69
2036;BME280;23642;42.658;23.350;2023-02-08T03:30:21;53661.53;;;-146.31;85.18
2036;BME280;23642;42.658;23.350;2023-02-08T03:35:28;53632.66;;;-146.31;85.14
2036;BME280;23642;42.658;23.350;2023-02-08T03:36:18;53578.97;;;-146.31;86.64
2036;BME280;23642;42.658;23.350;2023-02-08T03:39:03;53494.34;;;-146.31;87.11
2036;BME280;23642;42.658;23.350;2023-02-08T03:41:41;53428.28;;;-146.31;87.60
2036;BME280;23642;42.658;23.350;2023-02-08T03:44:59;53378.75;;;-146.31;87.99
2036;BME280;23642;42.658;23.350;2023-02-08T04:08:54;52875.13;;;-146.31;89.76
2036;BME280;23642;42.658;23.350;2023-02-08T04:11:44;52771.91;;;-146.31;89.49
2036;BME280;23642;42.658;23.350;2023-02-08T04:14:13;52763.66;;;-146.31;89.65
2036;BME280;23642;42.658;23.350;2023-02-08T04:16:40;52780.19;;;-146.31;90.48
2036;BME280;23642;42.658;23.350;2023-02-08T04:19:30;52623.34;;;-146.31;90.73
2036;BME280;23642;42.658;23.350;2023-02-08T04:22:09;52586.19;;;-146.31;90.21
2036;BME280;23642;42.658;23.350;2023-02-08T04:25:16;52573.81;;;-146.31;90.52
2036;BME280;23642;42.658;23.350;2023-02-08T04:27:48;52460.31;;;-146.31;91.20
2036;BME280;23642;42.658;23.350;2023-02-08T04:34:01;52305.53;;;-146.31;91.06
2036;BME280;23642;42.658;23.350;2023-02-08T04:36:38;52342.69;;;-146.31;90.96
2036;BME280;23642;42.658;23.350;2023-02-08T04:39:19;52256.00;;;-146.31;90.80
2036;BME280;23642;42.658;23.350;2023-02-08T04:41:48;52229.19;;;-146.31;90.77
2036;BME280;23642;42.658;23.350;2023-02-08T04:44:18;52074.44;;;-146.31;91.89
2036;BME280;23642;42.658;23.350;2023-02-08T04:46:45;51884.59;;;-146.31;92.46
2036;BME280;23642;42.658;23.350;2023-02-08T04:49:33;51599.88;;;-146.31;93.44
2036;BME280;23642;42.658;23.350;2023-02-08T04:52:13;51259.47;;;-146.31;93.31
2036;BME280;23642;42.658;23.350;2023-02-08T04:54:54;50900.56;;;-146.31;94.16
2036;BME280;23642;42.658;23.350;2023-02-08T04:57:30;50543.75;;;-146.31;94.54
2036;BME280;23642;42.658;23.350;2023-02-08T05:00:21;50434.44;;;-146.31;94.22
2036;BME280;23642;42.658;23.350;2023-02-08T05:03:18;50481.88;;;-146.31;93.89
2036;BME280;23642;42.658;23.350;2023-02-08T05:05:45;50543.75;;;-146.31;93.40
2036;BME280;23642;42.658;23.350;2023-02-08T05:08:21;50589.13;;;-146.31;93.10
2036;BME280;23642;42.658;23.350;2023-02-08T05:11:05;50653.06;;;-146.31;92.88
2036;BME280;23642;42.658;23.350;2023-02-08T05:13:48;50762.38;;;-146.31;92.79
2036;BME280;23642;42.658;23.350;2023-02-08T05:16:20;50721.13;;;-146.31;93.14
2036;BME280;23642;42.658;23.350;2023-02-08T05:18:56;50696.38;;;-146.31;92.71
2036;BME280;23642;42.658;23.350;2023-02-08T05:21:28;50601.50;;;-146.31;93.39
2036;BME280;23642;42.658;23.350;2023-02-08T05:24:02;50514.88;;;-146.31;93.61
2036;BME280;23642;42.658;23.350;2023-02-08T05:26:39;50358.13;;;-146.31;93.99
2036;BME280;23642;42.658;23.350;2023-02-08T05:29:11;50131.28;;;-146.31;94.72
2036;BME280;23642;42.658;23.350;2023-02-08T05:31:39;49821.97;;;-146.31;95.26
2036;BME280;23642;42.658;23.350;2023-02-08T05:34:08;49555.97;;;-146.31;95.41
2036;BME280;23642;42.658;23.350;2023-02-08T05:36:36;49362.16;;;-146.31;95.46
2036;BME280;23642;42.658;23.350;2023-02-08T05:39:04;49168.34;;;-146.31;95.91
2036;BME280;23642;42.658;23.350;2023-02-08T05:41:36;49013.75;;;-146.31;96.24
2036;BME280;23642;42.658;23.350;2023-02-08T05:44:08;48925.09;;;-146.31;96.36
2036;BME280;23642;42.658;23.350;2023-02-08T05:46:36;48786.97;;;-146.31;96.58
2036;BME280;23642;42.658;23.350;2023-02-08T05:49:25;48650.94;;;-146.31;96.74
2036;BME280;23642;42.658;23.350;2023-02-08T05:51:52;48545.81;;;-146.31;97.33
2036;BME280;23642;42.658;23.350;2023-02-08T05:54:31;48471.59;;;-146.31;96.98
2036;BME280;23642;42.658;23.350;2023-02-08T05:57:01;48488.09;;;-146.31;96.64
2036;BME280;23642;42.658;23.350;2023-02-08T05:59:35;48481.91;;;-146.31;96.70
2036;BME280;23642;42.658;23.350;2023-02-08T06:02:19;48506.66;;;-146.31;96.55
2036;BME280;23642;42.658;23.350;2023-02-08T06:04:52;48556.13;;;-146.31;96.56
2036;BME280;23642;42.658;23.350;2023-02-08T06:07:19;48638.56;;;-146.31;96.49
2036;BME280;23642;42.658;23.350;2023-02-08T06:14:02;48708.66;;;-146.31;96.16
2036;BME280;23642;42.658;23.350;2023-02-08T06:16:53;48642.69;;;-146.31;96.39
2036;BME280;23642;42.658;23.350;2023-02-08T06:19:32;48642.69;;;-146.31;96.43
2036;BME280;23642;42.658;23.350;2023-02-08T06:21:59;48638.56;;;-146.31;96.29
2036;BME280;23642;42.658;23.350;2023-02-08T06:24:41;48716.91;;;-146.31;95.92
2036;BME280;23642;42.658;23.350;2023-02-08T06:27:13;48743.69;;;-146.31;96.09
2036;BME280;23642;42.658;23.350;2023-02-08T06:29:59;48795.22;;;-146.31;95.42
2036;BME280;23642;42.658;23.350;2023-02-08T06:32:31;48885.94;;;-146.31;95.73
2036;BME280;23642;42.658;23.350;2023-02-08T06:35:08;48978.69;;;-146.31;95.56
2036;BME280;23642;42.658;23.350;2023-02-08T06:37:40;49240.53;;;-146.31;94.64
2036;BME280;23642;42.658;23.350;2023-02-08T06:40:10;49508.53;;;-146.31;93.21
2036;BME280;23642;42.658;23.350;2023-02-08T06:42:59;50176.63;;;-146.31;90.85
2036;BME280;23642;42.658;23.350;2023-02-08T06:45:36;50432.38;;;-146.31;90.06
2036;BME280;23642;42.658;23.350;2023-02-08T06:48:04;50597.38;;;-146.31;89.63
2036;BME280;23642;42.658;23.350;2023-02-08T06:50:42;50642.75;;;-146.31;89.25
2036;BME280;23642;42.658;23.350;2023-02-08T06:53:27;50745.88;;;-146.31;88.82
2036;BME280;23642;42.658;23.350;2023-02-08T06:59:08;51024.31;;;-146.31;87.68
2036;BME280;23642;42.658;23.350;2023-02-08T07:01:44;51090.34;;;-146.31;87.74
2036;BME280;23642;42.658;23.350;2023-02-08T07:04:16;51226.47;;;-146.31;87.66
2036;BME280;23642;42.658;23.350;2023-02-08T07:06:55;51323.44;;;-146.31;87.30
2036;BME280;23642;42.658;23.350;2023-02-08T07:09:24;51447.22;;;-146.31;87.01
2036;BME280;23642;42.658;23.350;2023-02-08T07:11:51;51556.56;;;-146.31;85.55
2036;BME280;23642;42.658;23.350;2023-02-08T07:14:18;51843.34;;;-146.31;83.89
2036;BME280;23642;42.658;23.350;2023-02-08T07:16:46;51917.63;;;-146.31;84.32
2036;BME280;23642;42.658;23.350;2023-02-08T07:19:29;51948.56;;;-146.31;83.85
2036;BME280;23642;42.658;23.350;2023-02-08T07:22:10;52051.72;;;-146.31;83.09
2036;BME280;23642;42.658;23.350;2023-02-08T07:24:38;52150.78;;;-146.31;82.62
2036;BME280;23642;42.658;23.350;2023-02-08T07:27:10;52580.00;;;-146.31;80.79
2036;BME280;23642;42.658;23.350;2023-02-08T07:29:43;53254.88;;;-146.31;80.65
2036;BME280;23642;42.658;23.350;2023-02-08T07:32:12;53329.19;;;-146.31;80.61
2036;BME280;23642;42.658;23.350;2023-02-08T07:34:39;53481.94;;;-146.31;78.87
2036;BME280;23642;42.658;23.350;2023-02-08T07:40:20;53673.94;;;-146.31;76.27
2036;BME280;23642;42.658;23.350;2023-02-08T07:42:50;53785.41;;;-146.31;75.07
2036;BME280;23642;42.658;23.350;2023-02-08T07:45:30;53676.00;;;-146.31;74.60
2036;BME280;23642;42.658;23.350;2023-02-08T07:51:36;53327.13;;;-146.31;74.07
2036;BME280;23642;42.658;23.350;2023-02-08T07:54:04;53353.97;;;-146.31;74.45
2036;BME280;23642;42.658;23.350;2023-02-08T07:57:16;53201.22;;;-146.31;74.63
2036;BME280;23642;42.658;23.350;2023-02-08T08:00:11;53461.31;;;-146.31;76.45
2036;BME280;23642;42.658;23.350;2023-02-08T08:02:40;53147.56;;;-146.31;75.48
2036;BME280;23642;42.658;23.350;2023-02-08T08:05:26;53345.72;;;-146.31;75.42
2036;BME280;23642;42.658;23.350;2023-02-08T08:15:33;53428.28;;;-146.31;74.00
2036;BME280;23642;42.658;23.350;2023-02-08T08:18:47;53461.31;;;-146.31;73.17
2036;BME280;23642;42.658;23.350;2023-02-08T08:24:43;53508.78;;;-146.31;72.88
2036;BME280;23642;42.658;23.350;2023-02-08T08:25:10;53467.50;;;-146.31;72.60
2036;BME280;23642;42.658;23.350;2023-02-08T08:27:57;53494.34;;;-146.31;72.69
2036;BME280;23642;42.658;23.350;2023-02-08T08:31:10;53529.44;;;-146.31;72.29
2036;BME280;23642;42.658;23.350;2023-02-08T08:33:46;53556.25;;;-146.31;72.42
2036;BME280;23642;42.658;23.350;2023-02-08T08:38:58;53659.47;;;-146.31;71.80
2036;BME280;23642;42.658;23.350;2023-02-08T08:41:35;53690.44;;;-146.31;71.08
2036;BME280;23642;42.658;23.350;2023-02-08T08:45:03;53746.19;;;-146.31;70.82
2036;BME280;23642;42.658;23.350;2023-02-08T08:47:31;53717.28;;;-146.31;71.01
2036;BME280;23642;42.658;23.350;2023-02-08T08:49:58;53740.00;;;-146.31;69.18
2036;BME280;23642;42.658;23.350;2023-02-08T08:52:30;53735.88;;;-146.31;68.78
2036;BME280;23642;42.658;23.350;2023-02-08T08:55:19;53742.06;;;-146.31;69.65
2036;BME280;23642;42.658;23.350;2023-02-08T08:58:13;53748.25;;;-146.31;68.84
2036;BME280;23642;42.658;23.350;2023-02-08T09:01:39;53797.78;;;-146.31;67.95
2036;BME280;23642;42.658;23.350;2023-02-08T09:04:20;53894.81;;;-146.31;67.59
2036;BME280;23642;42.658;23.350;2023-02-08T09:07:10;53927.84;;;-146.31;67.12
2036;BME280;23642;42.658;23.350;2023-02-08T09:09:37;53938.19;;;-146.31;67.80
2036;BME280;23642;42.658;23.350;2023-02-08T09:12:29;53890.69;;;-146.31;67.34
2036;BME280;23642;42.658;23.350;2023-02-08T09:14:59;53927.84;;;-146.31;66.45
2036;BME280;23642;42.658;23.350;2023-02-08T09:17:25;53998.06;;;-146.31;66.60
2036;BME280;23642;42.658;23.350;2023-02-08T09:19:54;53989.78;;;-146.31;67.41
2036;BME280;23642;42.658;23.350;2023-02-08T09:22:49;53971.22;;;-146.31;67.40
2036;BME280;23642;42.658;23.350;2023-02-08T09:25:40;54095.09;;;-146.31;66.13
2036;BME280;23642;42.658;23.350;2023-02-08T09:28:44;54134.31;;;-146.31;66.41
2036;BME280;23642;42.658;23.350;2023-02-08T09:31:18;54173.53;;;-146.31;66.50
2036;BME280;23642;42.658;23.350;2023-02-08T09:34:00;54223.09;;;-146.31;66.66
2036;BME280;23642;42.658;23.350;2023-02-08T09:36:42;54293.28;;;-146.31;65.62
2036;BME280;23642;42.658;23.350;2023-02-08T09:39:32;54361.44;;;-146.31;64.58
2036;BME280;23642;42.658;23.350;2023-02-08T09:42:42;54611.28;;;-146.31;63.64
2036;BME280;23642;42.658;23.350;2023-02-08T09:48:23;54313.94;;;-146.31;64.68
2036;BME280;23642;42.658;23.350;2023-02-08T09:51:18;54388.28;;;-146.31;63.92
2036;BME280;23642;42.658;23.350;2023-02-08T09:54:24;54349.03;;;-146.31;63.31
2036;BME280;23642;42.658;23.350;2023-02-08T09:56:52;54175.59;;;-146.31;64.30
2036;BME280;23642;42.658;23.350;2023-02-08T09:59:27;54233.41;;;-146.31;63.22
2036;BME280;23642;42.658;23.350;2023-02-08T10:01:58;54272.66;;;-146.31;65.95
2036;BME280;23642;42.658;23.350;2023-02-08T10:08:07;54446.09;;;-146.31;64.67
2036;BME280;23642;42.658;23.350;2023-02-08T10:10:42;54371.75;;;-146.31;64.44
2036;BME280;23642;42.658;23.350;2023-02-08T10:13:45;54320.13;;;-146.31;64.52
2036;BME280;23642;42.658;23.350;2023-02-08T10:16:18;54439.91;;;-146.31;64.46
2036;BME280;23642;42.658;23.350;2023-02-08T10:25:54;54931.38;;;-146.31;62.20
2036;BME280;23642;42.658;23.350;2023-02-08T10:32:24;54433.69;;;-146.31;60.48
2036;BME280;23642;42.658;23.350;2023-02-08T10:35:04;54883.88;;;-146.31;58.65
2036;BME280;23642;42.658;23.350;2023-02-08T10:37:33;54916.91;;;-146.31;57.03
2036;BME280;23642;42.658;23.350;2023-02-08T10:43:47;54753.75;;;-146.31;55.22
2036;BME280;23642;42.658;23.350;2023-02-08T10:46:44;54885.94;;;-146.31;55.63
2036;BME280;23642;42.658;23.350;2023-02-08T10:49:34;55127.56;;;-146.31;55.68
2036;BME280;23642;42.658;23.350;2023-02-08T10:52:25;55080.06;;;-146.31;56.12
2036;BME280;23642;42.658;23.350;2023-02-08T10:54:53;55049.06;;;-146.31;56.58
2036;BME280;23642;42.658;23.350;2023-02-08T10:57:34;55142.00;;;-146.31;53.10
2036;BME280;23642;42.658;23.350;2023-02-08T11:00:21;55111.03;;;-146.31;55.08
2036;BME280;23642;42.658;23.350;2023-02-08T11:02:52;55259.72;;;-146.31;53.21
2036;BME280;23642;42.658;23.350;2023-02-08T11:05:30;55255.59;;;-146.31;53.67
2036;BME280;23642;42.658;23.350;2023-02-08T11:08:06;55082.13;;;-146.31;52.26
2036;BME280;23642;42.658;23.350;2023-02-08T11:11:05;55251.47;;;-146.31;52.87
2036;BME280;23642;42.658;23.350;2023-02-08T11:13:35;55276.25;;;-146.31;54.01
2036;BME280;23642;42.658;23.350;2023-02-08T11:16:18;55241.16;;;-146.31;56.44
2036;BME280;23642;42.658;23.350;2023-02-08T11:18:47;55224.63;;;-146.31;56.18
2036;BME280;23642;42.658;23.350;2023-02-08T11:21:36;55218.44;;;-146.31;57.06
2036;BME280;23642;42.658;23.350;2023-02-08T11:24:24;55230.81;;;-146.31;58.92
2036;BME280;23642;42.658;23.350;2023-02-08T11:26:52;55210.16;;;-146.31;59.23
2036;BME280;23642;42.658;23.350;2023-02-08T11:29:22;55160.59;;;-146.31;58.18
2036;BME280;23642;42.658;23.350;2023-02-08T11:32:12;55096.56;;;-146.31;57.67
2036;BME280;23642;42.658;23.350;2023-02-08T11:34:41;55059.41;;;-146.31;58.08
2036;BME280;23642;42.658;23.350;2023-02-08T11:37:22;55108.97;;;-146.31;58.84
2036;BME280;23642;42.658;23.350;2023-02-08T11:39:54;54943.75;;;-146.31;58.38
2036;BME280;23642;42.658;23.350;2023-02-08T11:42:24;54689.75;;;-146.31;58.51
2036;BME280;23642;42.658;23.350;2023-02-08T11:44:53;54704.22;;;-146.31;57.83
2036;BME280;23642;42.658;23.350;2023-02-08T11:47:31;54770.28;;;-146.31;nan
2036;BME280;23642;42.658;23.350;2023-02-08T11:50:04;54714.53;;;-146.31;58.21
2036;BME280;23642;42.658;23.350;2023-02-08T11:52:34;54733.13;;;-146.31;57.23
2036;BME280;23642;42.658;23.350;2023-02-08T11:55:21;54788.88;;;-146.31;56.99
2036;BME280;23642;42.658;23.350;2023-02-08T11:58:02;54861.16;;;-146.31;57.61
2036;BME280;23642;42.658;23.350;2023-02-08T12:00:35;54935.50;;;-146.31;57.63
2036;BME280;23642;42.658;23.350;2023-02-08T12:03:25;54881.78;;;-146.31;57.95
2036;BME280;23642;42.658;23.350;2023-02-08T12:06:12;55016.03;;;-146.31;56.68
2036;BME280;23642;42.658;23.350;2023-02-08T12:08:58;55203.97;;;-146.31;55.73
2036;BME280;23642;42.658;23.350;2023-02-08T12:11:40;55228.75;;;-146.31;56.62
2036;BME280;23642;42.658;23.350;2023-02-08T12:14:23;55201.91;;;-146.31;57.04
2036;BME280;23642;42.658;23.350;2023-02-08T12:17:03;55096.56;;;-146.31;57.53
2036;BME280;23642;42.658;23.350;2023-02-08T12:19:56;55042.88;;;-146.31;57.26
2036;BME280;23642;42.658;23.350;2023-02-08T12:22:28;54749.63;;;-146.31;57.56
2036;BME280;23642;42.658;23.350;2023-02-08T12:25:05;54762.03;;;-146.31;56.89
2036;BME280;23642;42.658;23.350;2023-02-08T12:27:43;54784.75;;;-146.31;56.96
2036;BME280;23642;42.658;23.350;2023-02-08T12:30:20;54811.59;;;-146.31;56.53
2036;BME280;23642;42.658;23.350;2023-02-08T12:33:05;54972.66;;;-146.31;56.32
2036;BME280;23642;42.658;23.350;2023-02-08T12:39:04;54968.53;;;-146.31;54.17
2036;BME280;23642;42.658;23.350;2023-02-08T12:42:03;55063.53;;;-146.31;53.71
2036;BME280;23642;42.658;23.350;2023-02-08T12:44:40;55183.31;;;-146.31;53.93
2036;BME280;23642;42.658;23.350;2023-02-08T12:47:32;55216.34;;;-146.31;53.83
2036;BME280;23642;42.658;23.350;2023-02-08T12:50:11;55220.50;;;-146.31;53.28
2036;BME280;23642;42.658;23.350;2023-02-08T12:52:43;55177.13;;;-146.31;52.31
2036;BME280;23642;42.658;23.350;2023-02-08T12:55:18;54997.44;;;-146.31;52.71
2036;BME280;23642;42.658;23.350;2023-02-08T12:57:55;54918.97;;;-146.31;52.92
2036;BME280;23642;42.658;23.350;2023-02-08T13:00:24;54894.19;;;-146.31;51.49
2036;BME280;23642;42.658;23.350;2023-02-08T13:03:02;54958.22;;;-146.31;51.71
2036;BME280;23642;42.658;23.350;2023-02-08T13:05:34;54958.22;;;-146.31;52.00
2036;BME280;23642;42.658;23.350;2023-02-08T13:08:33;54985.06;;;-146.31;51.03
2036;BME280;23642;42.658;23.350;2023-02-08T13:11:43;54960.28;;;-146.31;51.94
2036;BME280;23642;42.658;23.350;2023-02-08T13:14:25;54931.38;;;-146.31;50.86
2036;BME280;23642;42.658;23.350;2023-02-08T13:16:59;54997.44;;;-146.31;49.91
2036;BME280;23642;42.658;23.350;2023-02-08T13:20:22;54968.53;;;-146.31;50.56
2036;BME280;23642;42.658;23.350;2023-02-08T13:22:48;54980.94;;;-146.31;49.39
2036;BME280;23642;42.658;23.350;2023-02-08T13:25:26;54978.84;;;-146.31;49.63
2036;BME280;23642;42.658;23.350;2023-02-08T13:31:36;54995.38;;;-146.31;50.32
2036;BME280;23642;42.658;23.350;2023-02-08T13:34:21;55022.22;;;-146.31;50.15
2036;BME280;23642;42.658;23.350;2023-02-08T13:37:24;55034.63;;;-146.31;51.65
2036;BME280;23642;42.658;23.350;2023-02-08T13:40:02;55022.22;;;-146.31;51.30
2036;BME280;23642;42.658;23.350;2023-02-08T13:43:00;54964.41;;;-146.31;52.44
2036;BME280;23642;42.658;23.350;2023-02-08T13:45:38;54960.28;;;-146.31;53.20
2036;BME280;23642;42.658;23.350;2023-02-08T13:48:21;54964.41;;;-146.31;53.04
2036;BME280;23642;42.658;23.350;2023-02-08T13:50:56;55005.72;;;-146.31;52.98
2036;BME280;23642;42.658;23.350;2023-02-08T13:56:51;54956.16;;;-146.31;53.83
2036;BME280;23642;42.658;23.350;2023-02-08T13:59:35;54954.06;;;-146.31;53.37
2036;BME280;23642;42.658;23.350;2023-02-08T14:02:26;54966.47;;;-146.31;53.70
2036;BME280;23642;42.658;23.350;2023-02-08T14:05:33;54980.94;;;-146.31;54.46
2036;BME280;23642;42.658;23.350;2023-02-08T14:09:37;54989.19;;;-146.31;53.73
2036;BME280;23642;42.658;23.350;2023-02-08T14:11:31;54980.94;;;-146.31;53.70
2036;BME280;23642;42.658;23.350;2023-02-08T14:14:03;54978.84;;;-146.31;53.64
2036;BME280;23642;42.658;23.350;2023-02-08T14:16:32;54974.72;;;-146.31;53.79
2036;BME280;23642;42.658;23.350;2023-02-08T14:19:02;54972.66;;;-146.31;54.08
2036;BME280;23642;42.658;23.350;2023-02-08T14:21:35;54945.81;;;-146.31;54.49
2036;BME280;23642;42.658;23.350;2023-02-08T14:24:37;54906.56;;;-146.31;55.74
2036;BME280;23642;42.658;23.350;2023-02-08T14:27:34;54937.56;;;-146.31;55.62
2036;BME280;23642;42.658;23.350;2023-02-08T14:30:22;54898.31;;;-146.31;56.03
2036;BME280;23642;42.658;23.350;2023-02-08T14:33:23;54888.00;;;-146.31;56.13
2036;BME280;23642;42.658;23.350;2023-02-08T14:39:32;54902.44;;;-146.31;57.88
2036;BME280;23642;42.658;23.350;2023-02-08T14:45:26;54848.75;;;-146.31;59.06
2036;BME280;23642;42.658;23.350;2023-02-08T14:50:51;54811.59;;;-146.31;60.25
2036;BME280;23642;42.658;23.350;2023-02-08T14:53:41;54799.19;;;-146.31;60.03
2036;BME280;23642;42.658;23.350;2023-02-08T14:56:19;54844.63;;;-146.31;59.36
2036;BME280;23642;42.658;23.350;2023-02-08T14:58:51;54854.94;;;-146.31;58.86
2036;BME280;23642;42.658;23.350;2023-02-08T15:01:42;54871.47;;;-146.31;59.46
2036;BME280;23642;42.658;23.350;2023-02-08T15:04:11;54873.53;;;-146.31;59.70
2036;BME280;23642;42.658;23.350;2023-02-08T15:07:01;54861.16;;;-146.31;60.37
2036;BME280;23642;42.658;23.350;2023-02-08T15:09:35;54826.03;;;-146.31;61.01
2036;BME280;23642;42.658;23.350;2023-02-08T15:12:07;54826.03;;;-146.31;61.41
2036;BME280;23642;42.658;23.350;2023-02-08T15:18:05;54823.97;;;-146.31;61.91
2036;BME280;23642;42.658;23.350;2023-02-08T15:20:44;54803.31;;;-146.31;62.07
2036;BME280;23642;42.658;23.350;2023-02-08T15:23:22;54801.25;;;-146.31;62.50
2036;BME280;23642;42.658;23.350;2023-02-08T15:26:03;54799.19;;;-146.31;61.96
2036;BME280;23642;42.658;23.350;2023-02-08T15:28:45;54821.91;;;-146.31;62.60
2036;BME280;23642;42.658;23.350;2023-02-08T15:31:29;54801.25;;;-146.31;62.21
2036;BME280;23642;42.658;23.350;2023-02-08T15:34:14;54811.59;;;-146.31;63.23
2036;BME280;23642;42.658;23.350;2023-02-08T15:37:04;54799.19;;;-146.31;62.97
2036;BME280;23642;42.658;23.350;2023-02-08T15:43:01;54795.06;;;-146.31;63.21
2036;BME280;23642;42.658;23.350;2023-02-08T15:45:31;54828.09;;;-146.31;62.83
2036;BME280;23642;42.658;23.350;2023-02-08T15:47:58;54844.63;;;-146.31;62.49
2036;BME280;23642;42.658;23.350;2023-02-08T15:50:27;54823.97;;;-146.31;62.81
2036;BME280;23642;42.658;23.350;2023-02-08T15:53:10;54844.63;;;-146.31;63.12
2036;BME280;23642;42.658;23.350;2023-02-08T15:55:45;54805.38;;;-146.31;63.40
2036;BME280;23642;42.658;23.350;2023-02-08T15:58:34;54821.91;;;-146.31;64.12
2036;BME280;23642;42.658;23.350;2023-02-08T16:01:17;54828.09;;;-146.31;63.88
2036;BME280;23642;42.658;23.350;2023-02-08T16:04:03;54830.16;;;-146.31;63.72
2036;BME280;23642;42.658;23.350;2023-02-08T16:06:36;54852.88;;;-146.31;64.59
2036;BME280;23642;42.658;23.350;2023-02-08T16:09:05;54801.25;;;-146.31;64.79
2036;BME280;23642;42.658;23.350;2023-02-08T16:11:46;54805.38;;;-146.31;64.63
2036;BME280;23642;42.658;23.350;2023-02-08T16:14:15;54749.63;;;-146.31;64.75
2036;BME280;23642;42.658;23.350;2023-02-08T16:16:49;54799.19;;;-146.31;64.44
2036;BME280;23642;42.658;23.350;2023-02-08T16:19:42;54832.25;;;-146.31;64.20
2036;BME280;23642;42.658;23.350;2023-02-08T16:22:24;54795.06;;;-146.31;64.90
2036;BME280;23642;42.658;23.350;2023-02-08T16:25:23;54778.53;;;-146.31;64.51
2036;BME280;23642;42.658;23.350;2023-02-08T16:27:50;54821.91;;;-146.31;65.10
2036;BME280;23642;42.658;23.350;2023-02-08T16:30:18;54817.78;;;-146.31;65.53
2036;BME280;23642;42.658;23.350;2023-02-08T16:32:47;54799.19;;;-146.31;64.65
2036;BME280;23642;42.658;23.350;2023-02-08T16:35:21;54832.25;;;-146.31;65.38
2036;BME280;23642;42.658;23.350;2023-02-08T16:37:57;54762.03;;;-146.31;64.59
2036;BME280;23642;42.658;23.350;2023-02-08T16:40:46;54836.38;;;-146.31;64.55
2036;BME280;23642;42.658;23.350;2023-02-08T16:43:22;54770.28;;;-146.31;65.64
2036;BME280;23642;42.658;23.350;2023-02-08T16:46:16;54782.69;;;-146.31;64.83
2036;BME280;23642;42.658;23.350;2023-02-08T16:48:57;54766.16;;;-146.31;65.78
2036;BME280;23642;42.658;23.350;2023-02-08T16:51:25;54757.91;;;-146.31;65.05
2036;BME280;23642;42.658;23.350;2023-02-08T16:53:55;54790.94;;;-146.31;64.83
2036;BME280;23642;42.658;23.350;2023-02-08T16:56:22;54749.63;;;-146.31;64.85
2036;BME280;23642;42.658;23.350;2023-02-08T16:58:50;54753.75;;;-146.31;64.92
2036;BME280;23642;42.658;23.350;2023-02-08T17:01:19;54764.09;;;-146.31;64.26
2036;BME280;23642;42.658;23.350;2023-02-08T17:03:49;54757.91;;;-146.31;64.73
2036;BME280;23642;42.658;23.350;2023-02-08T17:06:29;54776.47;;;-146.31;64.88
2036;BME280;23642;42.658;23.350;2023-02-08T17:09:00;54745.50;;;-146.31;64.65
2036;BME280;23642;42.658;23.350;2023-02-08T17:11:27;54778.53;;;-146.31;65.16
2036;BME280;23642;42.658;23.350;2023-02-08T17:13:56;54749.63;;;-146.31;65.86
2036;BME280;23642;42.658;23.350;2023-02-08T17:16:26;54753.75;;;-146.31;65.23
2036;BME280;23642;42.658;23.350;2023-02-08T17:18:53;54731.06;;;-146.31;66.15
2036;BME280;23642;42.658;23.350;2023-02-08T17:21:20;54712.47;;;-146.31;66.49
2036;BME280;23642;42.658;23.350;2023-02-08T17:23:53;54722.78;;;-146.31;67.54
2036;BME280;23642;42.658;23.350;2023-02-08T17:26:22;54716.59;;;-146.31;68.03
2036;BME280;23642;42.658;23.350;2023-02-08T17:28:51;54712.47;;;-146.31;69.02
2036;BME280;23642;42.658;23.350;2023-02-08T17:31:22;54673.22;;;-146.31;68.23
2036;BME280;23642;42.658;23.350;2023-02-08T17:33:49;54675.28;;;-146.31;68.25
2036;BME280;23642;42.658;23.350;2023-02-08T17:36:16;54689.75;;;-146.31;68.79
2036;BME280;23642;42.658;23.350;2023-02-08T17:38:45;54671.16;;;-146.31;69.30
2036;BME280;23642;42.658;23.350;2023-02-08T17:41:15;54669.09;;;-146.31;68.96
2036;BME280;23642;42.658;23.350;2023-02-08T17:43:43;54646.38;;;-146.31;68.59
2036;BME280;23642;42.658;23.350;2023-02-08T17:46:10;54648.44;;;-146.31;68.10
2036;BME280;23642;42.658;23.350;2023-02-08T17:48:39;54664.97;;;-146.31;68.35
2036;BME280;23642;42.658;23.350;2023-02-08T17:51:18;54658.78;;;-146.31;70.40